Time;durP1;ratioP1;P1;durP2;ratioP2;P2;SDS_P1;SDS_P2;PMS_P1;PMS_P2;Temp;Humidity;BMP_temperature;BMP_pressure;BME280_temperature;BME280_humidity;BME280_pressure;Samples;Min_cycle;Max_cycle;Signal;HPM_P1;HPM_P2
2022/12/29 00:01:56;;;;;;;0.35;0.30;;;;;;;12.83;100.00;99398.03;8426106;28;20117;-50
2022/12/29 00:05:58;;;;;;;0.32;0.20;;;;;;;12.86;100.00;99392.22;8426629;28;20044;-50
2022/12/29 00:09:58;;;;;;;0.32;0.10;;;;;;;12.87;100.00;99399.38;8427411;28;20066;-51
2022/12/29 00:18:19;;;;;;;0.20;0.20;;;;;;;13.07;98.46;99385.13;8426946;28;20071;-49
2022/12/29 00:35:27;;;;;;;0.55;0.20;;;;;;;13.23;96.48;99375.97;8424411;28;20036;-52
2022/12/29 00:44:20;;;;;;;0.20;0.20;;;;;;;13.25;95.76;99371.22;8408862;28;20086;-49
2022/12/29 00:48:09;;;;;;;0.10;0.10;;;;;;;13.24;95.88;99359.50;8420644;28;20064;-50
2022/12/29 00:52:12;;;;;;;1.55;0.25;;;;;;;13.25;95.97;99368.50;8423634;28;20047;-50
2022/12/29 00:56:12;;;;;;;0.20;0.20;;;;;;;13.24;96.00;99370.34;8424989;28;20040;-50
2022/12/29 01:00:13;;;;;;;0.30;0.10;;;;;;;13.17;96.80;99360.44;8425575;28;20089;-49
2022/12/29 01:04:14;;;;;;;0.10;0.10;;;;;;;13.12;97.40;99371.00;8425312;28;20040;-50
2022/12/29 01:08:14;;;;;;;0.82;0.10;;;;;;;13.08;97.58;99359.69;8425274;28;20062;-51
2022/12/29 01:12:15;;;;;;;0.10;0.10;;;;;;;13.08;97.90;99373.25;8424690;28;20054;-50
2022/12/29 01:16:16;;;;;;;0.22;0.10;;;;;;;13.03;98.11;99372.13;8425461;28;20119;-49
2022/12/29 01:20:16;;;;;;;0.10;0.10;;;;;;;13.10;97.27;99373.91;8425198;28;20043;-51
2022/12/29 01:24:18;;;;;;;0.35;0.20;;;;;;;13.12;95.08;99358.28;8424275;28;20097;-50
2022/12/29 01:28:21;;;;;;;0.40;0.10;;;;;;;13.19;93.77;99366.53;8425017;28;20169;-50
2022/12/29 01:32:21;;;;;;;0.65;0.20;;;;;;;13.49;88.51;99370.94;8424708;28;20036;-49
2022/12/29 01:36:22;;;;;;;0.77;0.40;;;;;;;13.60;85.72;99340.59;8425124;28;20409;-50
2022/12/29 01:40:22;;;;;;;4.00;0.50;;;;;;;13.75;83.88;99346.84;8424263;28;20111;-49
2022/12/29 01:49:12;;;;;;;1.30;0.30;;;;;;;13.70;83.03;99339.28;8319381;28;20992;-49
2022/12/29 01:53:17;;;;;;;2.92;0.50;;;;;;;13.56;83.45;99325.72;8317605;28;20033;-49
2022/12/29 01:57:22;;;;;;;1.13;0.40;;;;;;;13.48;83.45;99344.84;8317395;28;20042;-51
2022/12/29 02:01:23;;;;;;;2.15;0.45;;;;;;;13.49;82.71;99335.66;8318213;28;20380;-48
2022/12/29 02:05:31;;;;;;;1.23;0.40;;;;;;;13.39;83.16;99335.09;8318643;28;20038;-48
2022/12/29 02:09:32;;;;;;;2.10;0.40;;;;;;;13.38;83.21;99330.69;8334082;28;20129;-50
2022/12/29 02:13:32;;;;;;;2.83;0.68;;;;;;;13.44;82.92;99329.94;8317713;28;20045;-52
2022/12/29 02:17:47;;;;;;;4.20;0.50;;;;;;;13.43;83.08;99320.13;8318822;28;20573;-49
2022/12/29 02:22:16;;;;;;;3.38;0.43;;;;;;;13.43;83.72;99325.53;8317587;28;20037;-49
2022/12/29 02:35:16;;;;;;;1.85;0.55;;;;;;;13.39;85.16;99302.53;8352363;27;20800;-49
2022/12/29 02:48:18;;;;;;;0.50;0.38;;;;;;;13.42;87.42;99291.28;8405108;27;20436;-50
2022/12/29 02:52:25;;;;;;;1.10;0.40;;;;;;;13.38;88.04;99287.25;8397750;27;20055;-49
2022/12/29 02:56:27;;;;;;;1.08;0.30;;;;;;;13.36;88.85;99292.03;8400508;27;20070;-49
2022/12/29 03:00:27;;;;;;;1.73;0.63;;;;;;;13.40;88.74;99287.91;8400675;27;20090;-51
2022/12/29 03:05:02;;;;;;;1.90;0.82;;;;;;;13.36;89.37;99282.00;8401113;27;20036;-49
2022/12/29 03:09:21;;;;;;;0.68;0.40;;;;;;;13.35;89.72;99283.06;8398546;28;20163;-49
2022/12/29 03:18:03;;;;;;;0.60;0.30;;;;;;;13.35;90.10;99264.06;8400668;28;20043;-49
2022/12/29 03:22:38;;;;;;;0.50;0.30;;;;;;;13.34;90.54;99261.53;8400016;28;20106;-49
2022/12/29 03:26:33;;;;;;;0.38;0.38;;;;;;;13.29;91.40;99272.09;8399990;28;20040;-50
2022/12/29 03:30:35;;;;;;;0.30;0.20;;;;;;;13.36;91.08;99270.34;8398512;28;20121;-50
2022/12/29 03:34:37;;;;;;;0.10;0.10;;;;;;;13.25;92.30;99268.06;8400479;27;20109;-50
2022/12/29 03:38:46;;;;;;;0.55;0.22;;;;;;;13.30;91.85;99250.19;8398788;27;20059;-49
2022/12/29 03:42:47;;;;;;;1.20;0.40;;;;;;;13.25;91.31;99240.94;8410695;28;20036;-50
2022/12/29 03:46:48;;;;;;;0.55;0.20;;;;;;;13.12;92.19;99229.91;8413175;28;20050;-50
2022/12/29 03:50:48;;;;;;;0.60;0.32;;;;;;;13.02;92.49;99230.19;8413603;28;20044;-51
2022/12/29 03:54:49;;;;;;;1.65;0.40;;;;;;;13.08;91.58;99239.44;8414922;28;20501;-50
2022/12/29 03:58:50;;;;;;;1.50;0.40;;;;;;;13.09;91.48;99233.00;8390453;28;20145;-52
2022/12/29 04:02:57;;;;;;;0.75;0.22;;;;;;;13.17;90.30;99227.47;8375545;28;20068;-49
2022/12/29 04:06:58;;;;;;;1.42;0.45;;;;;;;13.08;90.86;99228.59;8375948;28;20049;-49
2022/12/29 04:10:58;;;;;;;0.52;0.30;;;;;;;13.02;90.89;99213.91;8375333;28;20620;-51
2022/12/29 04:14:59;;;;;;;1.52;0.40;;;;;;;12.98;91.03;99209.00;8374113;28;20177;-50
2022/12/29 04:19:00;;;;;;;1.35;0.40;;;;;;;12.84;91.70;99201.75;8374582;28;20082;-49
2022/12/29 04:23:03;;;;;;;0.70;0.50;;;;;;;12.88;91.60;99216.59;8374804;28;20116;-50
2022/12/29 04:27:04;;;;;;;1.52;0.38;;;;;;;12.84;91.70;99209.88;8375151;28;20489;-49
2022/12/29 04:31:18;;;;;;;0.75;0.40;;;;;;;12.79;91.77;99223.13;8365765;28;20116;-49
2022/12/29 04:35:20;;;;;;;0.43;0.30;;;;;;;12.85;90.97;99244.09;8375016;28;20036;-49
2022/12/29 04:39:22;;;;;;;0.30;0.30;;;;;;;13.03;88.99;99247.31;8373821;28;20506;-49
2022/12/29 04:43:22;;;;;;;2.47;0.40;;;;;;;13.29;85.93;99243.09;8374135;28;20406;-51
2022/12/29 04:47:43;;;;;;;0.95;0.30;;;;;;;13.34;84.49;99256.09;8357498;28;20048;-50
2022/12/29 04:52:03;;;;;;;0.98;0.30;;;;;;;13.57;81.36;99240.50;8373689;28;20048;-49
2022/12/29 04:56:05;;;;;;;0.50;0.32;;;;;;;13.59;80.67;99228.44;8380902;28;20032;-49
2022/12/29 05:00:06;;;;;;;0.68;0.25;;;;;;;13.54;80.18;99230.88;8370186;28;20036;-53
2022/12/29 05:04:07;;;;;;;0.30;0.30;;;;;;;13.57;79.07;99235.91;8347301;28;20124;-49
2022/12/29 05:08:07;;;;;;;1.42;0.30;;;;;;;13.67;78.32;99241.06;8363951;28;20041;-49
2022/12/29 05:12:09;;;;;;;1.40;0.30;;;;;;;13.53;78.82;99255.50;8372955;28;20708;-49
2022/12/29 05:16:16;;;;;;;2.22;0.30;;;;;;;13.51;79.27;99269.25;8393653;28;20033;-49
2022/12/29 05:20:17;;;;;;;0.80;0.30;;;;;;;13.55;79.32;99264.31;8413169;28;20032;-49
2022/12/29 05:24:18;;;;;;;1.80;0.60;;;;;;;13.43;79.71;99249.53;8371046;28;20072;-50
2022/12/29 05:28:18;;;;;;;1.27;0.20;;;;;;;13.35;80.48;99257.75;8348890;28;20128;-50
2022/12/29 05:32:23;;;;;;;1.38;0.40;;;;;;;13.29;80.53;99259.38;8358946;28;20041;-50
2022/12/29 05:36:24;;;;;;;0.68;0.30;;;;;;;13.37;79.64;99277.44;8387645;28;20040;-48
2022/12/29 05:40:28;;;;;;;;;;;;;;;13.42;79.23;99275.00;8386034;28;20620;-49
2022/12/29 05:44:32;;;;;;;4.05;0.60;;;;;;;13.47;78.95;99291.56;8361852;28;19920;-49
2022/12/29 05:48:52;;;;;;;1.27;0.30;;;;;;;13.47;79.05;99292.41;8364016;28;20044;-50
2022/12/29 05:52:59;;;;;;;0.77;0.30;;;;;;;13.54;77.73;99290.59;8377259;28;20036;-49
2022/12/29 05:57:00;;;;;;;0.38;0.28;;;;;;;13.48;78.70;99283.22;8393865;28;20123;-50
2022/12/29 06:01:02;;;;;;;1.98;0.30;;;;;;;13.37;79.65;99288.28;8383726;28;20396;-50
2022/12/29 06:05:03;;;;;;;1.42;0.20;;;;;;;13.39;78.66;99288.97;8382266;28;20037;-50
2022/12/29 06:09:04;;;;;;;2.58;0.30;;;;;;;13.50;77.95;99285.75;8386250;28;20036;-52
2022/12/29 06:13:05;;;;;;;0.60;0.30;;;;;;;13.46;78.15;99270.88;8386141;28;20036;-49
2022/12/29 06:17:09;;;;;;;4.37;0.40;;;;;;;13.52;78.98;99275.53;8383148;28;20063;-50
2022/12/29 06:21:11;;;;;;;4.88;0.60;;;;;;;13.22;81.72;99279.31;8384720;28;20490;-48
2022/12/29 06:25:11;;;;;;;2.47;0.40;;;;;;;13.15;82.59;99283.81;8386116;28;20382;-52
2022/12/29 06:29:16;;;;;;;1.08;0.40;;;;;;;13.26;81.78;99286.03;8380498;28;20043;-48
2022/12/29 06:33:17;;;;;;;0.97;0.30;;;;;;;13.28;81.69;99287.56;8384377;28;20032;-48
2022/12/29 06:37:17;;;;;;;3.25;0.50;;;;;;;13.20;82.29;99312.06;8380788;28;20564;-48
2022/12/29 06:41:19;;;;;;;1.45;0.25;;;;;;;13.20;82.14;99295.78;8383782;28;20055;-49
2022/12/29 06:45:40;;;;;;;1.05;0.38;;;;;;;13.28;81.30;99311.97;8353247;28;20557;-49
2022/12/29 06:49:41;;;;;;;4.30;0.38;;;;;;;13.27;80.90;99304.03;8385354;28;20047;-49
2022/12/29 06:53:41;;;;;;;1.55;0.38;;;;;;;13.24;81.54;99312.53;8387119;28;20032;-49
2022/12/29 06:57:42;;;;;;;1.70;0.45;;;;;;;13.22;81.85;99312.72;8383854;28;20029;-49
2022/12/29 07:01:42;;;;;;;1.63;0.50;;;;;;;13.20;82.22;99303.06;8381115;28;20039;-48
2022/12/29 07:05:43;;;;;;;2.45;0.50;;;;;;;13.15;82.59;99303.63;8362907;28;20502;-50
2022/12/29 07:09:43;;;;;;;1.38;0.30;;;;;;;13.12;82.66;99333.03;8384543;28;20090;-49
2022/12/29 07:13:44;;;;;;;3.60;0.50;;;;;;;13.11;83.06;99342.16;8383475;28;20033;-49
2022/12/29 07:17:44;;;;;;;1.95;0.40;;;;;;;13.01;82.92;99337.03;8386940;28;20041;-49
2022/12/29 07:21:44;;;;;;;1.83;0.35;;;;;;;13.02;83.63;99354.16;8386268;28;20039;-49
2022/12/29 07:25:45;;;;;;;3.65;0.50;;;;;;;12.99;83.98;99368.91;8385983;28;20040;-51
2022/12/29 07:29:45;;;;;;;3.25;0.30;;;;;;;12.94;84.18;99378.63;8386911;28;20045;-50
2022/12/29 07:33:47;;;;;;;2.13;0.50;;;;;;;12.92;83.91;99378.78;8387647;28;20124;-49
2022/12/29 07:37:47;;;;;;;3.40;0.40;;;;;;;13.03;82.57;99394.69;8390509;28;20388;-51
2022/12/29 07:41:48;;;;;;;2.58;0.60;;;;;;;13.03;82.59;99400.09;8391173;28;20156;-49
2022/12/29 07:45:53;;;;;;;3.80;0.60;;;;;;;13.04;82.18;99390.06;8392868;28;20506;-48
2022/12/29 07:49:56;;;;;;;2.67;0.40;;;;;;;13.14;81.67;99406.94;8392666;28;20513;-48
2022/12/29 07:53:59;;;;;;;5.43;0.73;;;;;;;13.11;81.02;99419.00;8392073;28;20109;-49
2022/12/29 07:57:59;;;;;;;2.78;0.80;;;;;;;13.14;80.75;99421.34;8377505;28;20044;-51
2022/12/29 08:02:00;;;;;;;6.47;0.85;;;;;;;12.90;81.61;99409.84;8364926;28;20032;-50
2022/12/29 08:06:00;;;;;;;4.60;0.80;;;;;;;12.99;80.99;99414.19;8381985;28;20088;-50
2022/12/29 08:10:01;;;;;;;2.42;0.60;;;;;;;13.08;79.14;99416.66;8370857;28;20127;-50
2022/12/29 08:14:01;;;;;;;5.68;1.00;;;;;;;13.02;79.58;99417.38;8358990;28;20064;-50
2022/12/29 08:18:03;;;;;;;4.90;0.90;;;;;;;13.04;78.48;99422.63;8365798;28;20033;-50
2022/12/29 08:22:03;;;;;;;4.15;1.52;;;;;;;13.02;77.99;99436.38;8387529;28;20098;-50
2022/12/29 08:26:05;;;;;;;3.60;0.70;;;;;;;12.83;79.53;99436.84;8390547;28;20043;-49
2022/12/29 08:30:06;;;;;;;7.40;0.70;;;;;;;12.87;78.76;99440.06;8391550;28;20097;-50
2022/12/29 08:34:06;;;;;;;3.10;0.90;;;;;;;12.89;77.86;99451.53;8389213;28;20032;-50
2022/12/29 08:38:07;;;;;;;3.95;1.23;;;;;;;12.78;78.68;99443.84;8385855;28;20699;-49
2022/12/29 08:42:07;;;;;;;4.82;0.73;;;;;;;12.77;78.19;99447.56;8380219;28;20430;-51
2022/12/29 08:46:07;;;;;;;6.60;0.80;;;;;;;13.07;76.18;99455.69;8387162;28;20500;-49
2022/12/29 08:50:08;;;;;;;4.45;0.88;;;;;;;13.05;76.47;99463.16;8387808;28;20509;-51
2022/12/29 08:54:08;;;;;;;3.40;0.95;;;;;;;13.10;75.90;99451.75;8369569;28;20048;-49
2022/12/29 08:58:14;;;;;;;5.68;0.80;;;;;;;13.14;75.27;99450.34;8353662;28;20041;-50
2022/12/29 09:02:15;;;;;;;4.80;0.85;;;;;;;13.10;75.55;99470.75;8367215;28;20033;-51
2022/12/29 09:06:17;;;;;;;3.50;0.65;;;;;;;13.02;76.21;99489.81;8378818;28;20172;-52
2022/12/29 09:10:17;;;;;;;6.07;0.80;;;;;;;13.06;75.07;99496.56;8381957;28;20039;-50
2022/12/29 09:14:18;;;;;;;3.60;0.95;;;;;;;14.09;72.43;99490.28;8383559;28;20028;-50
2022/12/29 09:18:18;;;;;;;9.43;1.00;;;;;;;15.02;68.72;99490.22;8384933;28;20041;-50
2022/12/29 09:22:19;;;;;;;3.58;0.90;;;;;;;14.81;67.84;99494.78;8384719;28;20445;-50
2022/12/29 09:26:19;;;;;;;4.53;0.95;;;;;;;15.40;66.26;99516.16;8388834;28;20234;-51
2022/12/29 09:30:21;;;;;;;6.75;0.82;;;;;;;15.39;65.96;99519.94;8388686;28;20055;-52
2022/12/29 09:34:22;;;;;;;6.57;1.27;;;;;;;15.76;62.95;99509.75;8388537;28;20391;-48
2022/12/29 09:38:24;;;;;;;5.75;0.60;;;;;;;15.19;66.09;99502.50;8389263;28;20036;-48
2022/12/29 09:42:38;;;;;;;5.32;0.90;;;;;;;16.25;62.97;99505.88;8388145;28;20037;-50
2022/12/29 09:46:44;;;;;;;4.85;0.73;;;;;;;16.67;60.59;99505.69;8386886;28;20440;-48
2022/12/29 09:50:50;;;;;;;3.15;0.82;;;;;;;16.75;59.79;99515.59;8387877;28;20064;-50
2022/12/29 09:54:56;;;;;;;4.28;0.80;;;;;;;17.01;59.67;99518.41;8387370;28;20040;-51
2022/12/29 09:59:07;;;;;;;12.02;1.23;;;;;;;16.88;58.43;99512.91;8387810;28;20032;-49
2022/12/29 10:03:17;;;;;;;3.33;1.10;;;;;;;16.75;59.35;99513.72;8387764;28;20040;-53
2022/12/29 10:07:33;;;;;;;5.63;1.02;;;;;;;16.93;59.33;99529.53;8420355;28;20043;-49
2022/12/29 10:12:13;;;;;;;4.50;0.88;;;;;;;16.63;59.86;99519.97;8384203;28;20082;-49
2022/12/29 10:16:19;;;;;;;3.63;0.70;;;;;;;17.17;58.15;99507.13;8392012;28;20044;-49
2022/12/29 10:20:28;;;;;;;4.68;1.10;;;;;;;17.06;58.19;99504.97;8370808;28;20116;-49
2022/12/29 10:24:32;;;;;;;3.83;0.77;;;;;;;16.70;59.23;99512.63;8372714;28;20067;-51
2022/12/29 10:28:46;;;;;;;4.82;0.90;;;;;;;15.85;61.26;99514.03;8369050;28;20071;-49
2022/12/29 10:32:54;;;;;;;7.05;0.85;;;;;;;14.87;64.11;99524.78;8370883;28;20397;-48
2022/12/29 10:37:11;;;;;;;7.60;0.98;;;;;;;14.78;64.97;99528.66;8370188;28;20336;-50
2022/12/29 10:41:24;;;;;;;4.78;0.60;;;;;;;15.16;64.09;99540.19;8372641;28;20043;-52
2022/12/29 10:45:30;;;;;;;8.97;0.97;;;;;;;15.60;63.61;99528.09;8370352;28;20052;-49
2022/12/29 10:49:36;;;;;;;5.00;0.90;;;;;;;16.03;62.18;99522.50;8369762;28;20063;-49
2022/12/29 10:53:43;;;;;;;7.60;1.05;;;;;;;14.99;65.23;99542.31;8368820;28;20041;-50
2022/12/29 10:57:45;;;;;;;5.88;0.80;;;;;;;14.75;65.42;99537.22;8370457;28;20024;-49
2022/12/29 11:06:26;;;;;;;6.53;1.27;;;;;;;15.62;63.17;99542.34;8315949;27;20396;-49
2022/12/29 11:10:39;;;;;;;8.75;1.27;;;;;;;15.61;63.83;99540.66;8316433;28;20034;-51
2022/12/29 11:14:41;;;;;;;9.47;1.10;;;;;;;16.02;62.75;99548.09;8317124;28;20049;-49
2022/12/29 11:18:46;;;;;;;12.93;1.38;;;;;;;15.60;63.28;99558.06;8315513;28;20061;-48
2022/12/29 11:22:47;;;;;;;6.78;1.00;;;;;;;15.69;64.20;99534.22;8316331;28;20051;-49
2022/12/29 11:26:50;;;;;;;8.98;1.00;;;;;;;16.44;62.77;99548.81;8316800;28;20501;-49
2022/12/29 11:31:00;;;;;;;6.10;0.88;;;;;;;16.41;61.88;99564.72;8314629;28;20048;-52
2022/12/29 11:35:01;;;;;;;10.15;1.38;;;;;;;15.43;64.01;99575.69;8314506;28;20129;-51
2022/12/29 11:39:02;;;;;;;7.90;1.65;;;;;;;14.73;67.06;99573.81;8315940;28;20269;-49
2022/12/29 11:43:04;;;;;;;6.65;0.98;;;;;;;14.14;68.87;99581.09;8312241;28;20641;-49
2022/12/29 11:47:10;;;;;;;5.97;0.90;;;;;;;13.77;70.26;99579.28;8311793;28;20099;-51
2022/12/29 11:51:11;;;;;;;2.40;0.88;;;;;;;14.07;69.82;99585.59;8311264;28;20053;-49
2022/12/29 11:55:23;;;;;;;34.60;2.45;;;;;;;15.05;66.61;99571.50;8328753;28;20041;-48
2022/12/29 11:59:48;;;;;;;4.57;1.10;;;;;;;14.75;66.88;99586.19;8312405;28;20038;-49
2022/12/29 12:04:01;;;;;;;5.93;1.10;;;;;;;14.29;67.54;99579.28;8312899;28;20046;-50
2022/12/29 12:08:17;;;;;;;7.68;1.33;;;;;;;14.05;68.61;99579.50;8314080;28;20069;-49
2022/12/29 12:12:27;;;;;;;7.63;1.27;;;;;;;13.91;69.86;99584.91;8313136;28;20038;-49
2022/12/29 12:16:39;;;;;;;6.30;1.40;;;;;;;13.82;70.12;99582.25;8298088;28;20404;-48
2022/12/29 12:20:46;;;;;;;4.85;1.10;;;;;;;13.54;71.21;99580.31;8291284;28;20319;-49
2022/12/29 12:24:54;;;;;;;10.65;1.30;;;;;;;13.42;72.76;99590.75;8291243;28;20049;-49
2022/12/29 12:29:08;;;;;;;7.60;1.13;;;;;;;13.28;73.93;99601.56;8287020;28;20065;-50
2022/12/29 12:33:29;;;;;;;8.38;1.15;;;;;;;13.19;73.82;99589.06;8291094;28;20038;-49
2022/12/29 12:37:57;;;;;;;8.68;1.48;;;;;;;13.11;74.39;99597.25;8285977;28;20133;-50
2022/12/29 12:42:19;;;;;;;4.82;1.00;;;;;;;13.22;75.05;99605.84;8255947;28;20038;-49
2022/12/29 12:46:49;;;;;;;9.80;2.72;;;;;;;13.38;74.74;99592.16;8253063;28;20030;-49
2022/12/29 12:51:17;;;;;;;7.15;1.20;;;;;;;13.39;73.46;99596.56;8257664;28;20042;-49
2022/12/29 13:00:12;;;;;;;7.80;0.85;;;;;;;13.32;72.97;99592.03;8482857;27;20628;-51
2022/12/29 13:04:46;;;;;;;6.25;1.88;;;;;;;13.12;74.33;99609.81;8447883;27;20044;-48
2022/12/29 13:17:48;;;;;;;9.57;1.50;;;;;;;13.02;76.57;99628.19;8312695;28;20886;-53
2022/12/29 13:22:28;;;;;;;6.82;0.90;;;;;;;12.98;76.38;99637.66;8314238;28;20136;-50
2022/12/29 13:26:46;;;;;;;6.78;1.08;;;;;;;12.96;75.12;99637.00;8314866;28;20041;-53
2022/12/29 13:31:13;;;;;;;7.85;1.40;;;;;;;12.93;75.40;99640.91;8312900;28;20061;-52
2022/12/29 13:35:42;;;;;;;5.65;1.00;;;;;;;12.87;76.65;99638.91;8315312;28;20423;-48
2022/12/29 13:39:49;;;;;;;5.78;1.50;;;;;;;12.81;77.25;99638.78;8314524;28;20045;-50
2022/12/29 13:43:51;;;;;;;9.52;1.05;;;;;;;12.82;76.72;99645.88;8314370;28;20037;-49
2022/12/29 13:48:00;;;;;;;4.65;1.00;;;;;;;12.93;76.31;99654.47;8303002;28;20046;-49
2022/12/29 13:52:17;;;;;;;8.02;1.35;;;;;;;12.89;76.72;99663.13;8305197;28;20273;-50
2022/12/29 13:56:25;;;;;;;5.57;0.90;;;;;;;12.76;76.67;99673.69;8313415;28;20547;-49
2022/12/29 14:00:33;;;;;;;7.15;1.15;;;;;;;12.70;76.97;99685.25;8311099;28;20038;-49
2022/12/29 14:04:34;;;;;;;7.47;1.75;;;;;;;12.81;76.61;99682.16;8313699;28;20041;-50
2022/12/29 14:08:35;;;;;;;7.25;1.17;;;;;;;12.90;77.02;99697.41;8298418;28;20065;-50
2022/12/29 14:12:39;;;;;;;5.90;1.10;;;;;;;12.77;77.34;99708.78;8297200;28;20034;-48
2022/12/29 14:16:42;;;;;;;7.78;1.60;;;;;;;12.57;79.19;99703.94;8298547;28;20481;-50
2022/12/29 14:21:12;;;;;;;5.63;1.13;;;;;;;12.46;79.07;99704.28;8298437;28;20046;-50
2022/12/29 14:25:53;;;;;;;6.65;0.95;;;;;;;12.51;78.48;99712.75;8300601;28;20054;-49
2022/12/29 14:29:53;;;;;;;8.77;1.02;;;;;;;12.39;79.59;99714.13;8262844;28;20046;-50
2022/12/29 14:38:25;;;;;;;5.63;1.05;;;;;;;12.31;80.66;99722.25;8354376;27;20437;-53
2022/12/29 14:42:30;;;;;;;7.03;1.13;;;;;;;12.23;80.68;99719.59;8345356;28;20064;-50
2022/12/29 14:46:56;;;;;;;10.30;1.85;;;;;;;12.29;79.37;99718.91;8333010;28;20072;-51
2022/12/29 14:50:57;;;;;;;10.35;1.10;;;;;;;12.26;78.52;99708.41;8335317;28;20045;-52
2022/12/29 14:55:19;;;;;;;7.68;1.20;;;;;;;12.19;77.54;99707.38;8347865;28;20045;-52
2022/12/29 14:59:20;;;;;;;7.63;1.33;;;;;;;12.12;77.35;99711.78;8343874;28;20037;-52
2022/12/29 15:03:28;;;;;;;7.20;1.20;;;;;;;11.97;77.46;99713.47;8347492;28;20037;-53
2022/12/29 15:07:29;;;;;;;7.20;1.20;;;;;;;11.87;77.81;99724.50;8346460;28;20033;-50
2022/12/29 15:15:50;;;;;;;4.43;0.95;;;;;;;11.69;78.60;99734.63;8320350;27;20389;-49
2022/12/29 15:19:51;;;;;;;7.93;1.50;;;;;;;11.58;78.98;99724.06;8336927;28;20052;-49
2022/12/29 15:23:52;;;;;;;9.77;1.08;;;;;;;11.50;79.13;99733.00;8338815;28;20661;-52
2022/12/29 15:27:59;;;;;;;11.57;1.35;;;;;;;11.44;79.27;99743.66;8333932;28;20044;-52
2022/12/29 15:32:15;;;;;;;8.40;1.25;;;;;;;11.37;79.40;99748.88;8340653;28;20040;-53
2022/12/29 15:36:23;;;;;;;9.48;1.40;;;;;;;11.36;79.21;99747.19;8338886;28;20099;-52
2022/12/29 15:40:27;;;;;;;7.28;1.27;;;;;;;11.38;78.82;99744.34;8335601;28;20040;-53
2022/12/29 16:11:31;;;;;;;13.20;1.27;;;;;;;10.98;79.09;99752.28;8398009;28;20062;-50
2022/12/29 16:15:32;;;;;;;9.70;1.60;;;;;;;10.92;79.08;99745.66;8400641;28;20078;-50
2022/12/29 16:19:37;;;;;;;12.23;1.65;;;;;;;10.86;79.87;99749.00;8412774;28;20044;-52
2022/12/29 16:23:37;;;;;;;6.68;1.65;;;;;;;10.83;80.63;99749.31;8412809;28;20505;-50
2022/12/29 16:27:40;;;;;;;6.25;1.35;;;;;;;10.78;81.47;99750.81;8405243;28;20040;-51
2022/12/29 16:31:59;;;;;;;6.60;1.35;;;;;;;10.70;81.96;99748.09;8401729;28;20044;-53
2022/12/29 16:36:01;;;;;;;9.40;1.90;;;;;;;10.65;82.15;99756.69;8390258;28;20405;-51
2022/12/29 16:45:48;;;;;;;9.43;1.73;;;;;;;10.56;83.21;99763.03;8391635;28;20113;-51
2022/12/29 16:49:52;;;;;;;11.20;1.67;;;;;;;10.59;82.54;99776.22;8400715;28;20032;-50
2022/12/29 16:53:54;;;;;;;10.25;2.53;;;;;;;10.54;82.82;99785.78;8399964;28;20045;-49
2022/12/29 16:57:56;;;;;;;5.80;1.60;;;;;;;10.60;82.06;99780.63;8382982;28;20044;-50
2022/12/29 17:01:59;;;;;;;15.07;2.65;;;;;;;10.66;81.16;99790.78;8377190;28;20068;-50
2022/12/29 17:06:00;;;;;;;9.88;1.95;;;;;;;10.67;80.78;99808.69;8384129;28;20067;-53
2022/12/29 17:10:00;;;;;;;16.85;3.00;;;;;;;10.63;81.28;99801.94;8386598;28;20131;-50
2022/12/29 17:14:01;;;;;;;6.28;2.17;;;;;;;10.54;81.56;99805.56;8391774;28;20341;-52
2022/12/29 17:18:01;;;;;;;7.72;1.52;;;;;;;10.57;80.95;99810.66;8388783;28;20044;-51
2022/12/29 17:22:02;;;;;;;18.88;3.10;;;;;;;10.54;81.06;99808.28;8384173;28;20517;-50
2022/12/29 17:26:03;;;;;;;12.07;2.08;;;;;;;10.47;81.45;99807.22;8366936;28;20056;-52
2022/12/29 17:30:10;;;;;;;12.48;2.08;;;;;;;10.45;81.12;99809.22;8358564;28;20036;-52
2022/12/29 17:34:12;;;;;;;11.32;1.95;;;;;;;10.40;81.39;99816.94;8381554;28;20064;-51
2022/12/29 17:38:19;;;;;;;13.80;1.58;;;;;;;10.36;80.79;99823.66;8397513;28;20035;-50
2022/12/29 17:42:20;;;;;;;9.40;1.67;;;;;;;10.28;81.03;99829.00;8384205;28;20043;-52
2022/12/29 17:46:20;;;;;;;15.73;2.45;;;;;;;10.33;80.36;99826.69;8348825;28;20064;-51
2022/12/29 17:50:24;;;;;;;8.10;1.90;;;;;;;10.30;80.05;99826.13;8371907;28;20044;-50
2022/12/29 17:54:25;;;;;;;13.32;2.58;;;;;;;10.38;79.61;99835.19;8375313;28;20116;-50
2022/12/29 17:58:28;;;;;;;12.00;2.35;;;;;;;10.56;78.36;99832.44;8366630;28;20037;-52
2022/12/29 18:02:30;;;;;;;19.85;2.83;;;;;;;10.56;78.39;99846.81;8383245;28;20029;-51
2022/12/29 18:06:31;;;;;;;24.15;4.05;;;;;;;10.67;78.66;99848.41;8376543;28;20045;-50
2022/12/29 18:10:31;;;;;;;14.45;3.30;;;;;;;10.71;79.23;99856.06;8386149;28;20048;-51
2022/12/29 18:14:32;;;;;;;11.05;2.85;;;;;;;10.81;78.94;99872.16;8385362;28;20028;-52
2022/12/29 18:18:32;;;;;;;16.30;2.35;;;;;;;10.82;80.70;99882.81;8410872;28;20054;-50
2022/12/29 18:22:32;;;;;;;14.70;2.83;;;;;;;10.55;86.65;99882.94;8419041;28;20503;-51
2022/12/29 18:26:34;;;;;;;13.23;2.88;;;;;;;10.17;90.09;99875.16;8404835;28;20117;-50
2022/12/29 18:30:35;;;;;;;16.33;3.70;;;;;;;9.89;92.29;99876.19;8386009;28;20094;-50
2022/12/29 18:34:36;;;;;;;18.38;3.47;;;;;;;9.81;93.34;99884.19;8380644;28;20198;-52
2022/12/29 18:38:37;;;;;;;22.20;3.97;;;;;;;9.64;94.99;99882.31;8383821;28;20040;-50
2022/12/29 18:42:37;;;;;;;12.65;2.80;;;;;;;9.51;96.66;99892.56;8395755;28;20044;-50
2022/12/29 18:46:39;;;;;;;17.33;2.72;;;;;;;9.47;96.12;99893.88;8382494;28;20048;-50
2022/12/29 18:50:39;;;;;;;22.92;4.70;;;;;;;9.60;95.16;99899.78;8365279;28;20307;-56
2022/12/29 18:54:40;;;;;;;11.57;2.10;;;;;;;9.82;91.91;99897.53;8380319;28;20040;-51
2022/12/29 18:58:40;;;;;;;11.80;2.83;;;;;;;9.84;92.08;99902.78;8383153;28;20052;-50
2022/12/29 19:02:42;;;;;;;11.18;2.83;;;;;;;9.77;92.02;99904.38;8382544;28;20091;-52
2022/12/29 19:06:42;;;;;;;7.18;1.63;;;;;;;9.59;92.70;99890.00;8384076;28;20169;-51
2022/12/29 19:10:44;;;;;;;20.23;2.70;;;;;;;9.46;93.60;99911.06;8381884;28;20032;-50
2022/12/29 19:14:44;;;;;;;13.02;2.10;;;;;;;9.43;92.90;99905.97;8367210;28;20409;-50
2022/12/29 19:18:45;;;;;;;15.23;2.53;;;;;;;9.38;92.72;99905.56;8378578;28;20039;-50
2022/12/29 19:22:45;;;;;;;11.98;2.03;;;;;;;9.42;91.93;99917.75;8383895;28;20033;-53
2022/12/29 19:26:45;;;;;;;7.47;2.03;;;;;;;9.35;92.36;99919.34;8385085;28;20044;-53
2022/12/29 19:30:47;;;;;;;26.85;9.82;;;;;;;9.30;92.65;99927.03;8384545;28;20036;-50
2022/12/29 19:34:47;;;;;;;13.73;2.17;;;;;;;9.23;93.08;99929.47;8383492;28;20086;-53
2022/12/29 19:38:48;;;;;;;7.70;1.88;;;;;;;9.21;93.60;99930.63;8377723;28;20064;-55
2022/12/29 19:42:49;;;;;;;6.25;1.70;;;;;;;9.18;93.22;99928.22;8377116;28;20407;-52
2022/12/29 19:46:49;;;;;;;8.57;1.58;;;;;;;9.14;93.70;99932.19;8382801;28;20048;-49
2022/12/29 19:50:50;;;;;;;7.68;1.90;;;;;;;9.05;94.35;99938.44;8379663;28;20037;-51
2022/12/29 19:54:51;;;;;;;9.15;1.95;;;;;;;8.97;94.64;99941.84;8370797;28;20090;-50
2022/12/29 19:58:52;;;;;;;8.32;1.77;;;;;;;8.96;94.92;99937.47;8370594;28;20066;-50
2022/12/29 20:02:52;;;;;;;6.55;2.13;;;;;;;8.98;94.77;99943.59;8379522;28;20040;-50
2022/12/29 20:06:52;;;;;;;10.80;3.17;;;;;;;9.00;94.29;99946.97;8375109;28;20098;-51
2022/12/29 20:10:58;;;;;;;14.43;2.15;;;;;;;9.03;93.68;99948.53;8369245;28;20094;-51
2022/12/29 20:14:59;;;;;;;18.40;3.10;;;;;;;9.09;93.19;99950.66;8368408;28;20048;-53
2022/12/29 20:19:00;;;;;;;15.10;2.78;;;;;;;9.15;91.31;99955.47;8379108;28;20064;-50
2022/12/29 20:23:00;;;;;;;23.27;3.17;;;;;;;9.25;90.49;99969.78;8380453;28;20040;-50
2022/12/29 20:27:02;;;;;;;18.52;3.55;;;;;;;9.22;90.24;99978.16;8371005;28;20047;-50
2022/12/29 20:31:06;;;;;;;12.70;2.83;;;;;;;9.08;91.15;99983.97;8381242;28;20109;-50
2022/12/29 20:35:08;;;;;;;12.10;3.65;;;;;;;9.04;91.43;99996.06;8360244;28;20273;-52
2022/12/29 20:39:13;;;;;;;18.95;2.55;;;;;;;8.96;91.42;100012.09;8392606;28;20044;-50
2022/12/29 20:43:15;;;;;;;21.85;4.15;;;;;;;8.97;91.05;100016.50;8382174;28;20067;-54
2022/12/29 20:47:15;;;;;;;14.95;3.20;;;;;;;8.92;91.30;100016.06;8389046;28;20048;-50
2022/12/29 20:51:17;;;;;;;20.10;4.20;;;;;;;8.88;91.12;100020.06;8368695;28;20087;-52
2022/12/29 20:55:18;;;;;;;18.38;3.30;;;;;;;8.81;91.83;100016.25;8377900;28;20041;-50
2022/12/29 20:59:18;;;;;;;13.75;2.78;;;;;;;8.73;91.70;100024.16;8390202;28;20048;-51